sensor_id;sensor_type;location;lat;lon;timestamp;temperature;humidity
12089;DHT22;6107;49.078;8.578;2024-03-17T00:00:22;5.50;99.90
12089;DHT22;6107;49.078;8.578;2024-03-17T00:02:48;5.70;99.90
12089;DHT22;6107;49.078;8.578;2024-03-17T00:07:40;5.90;99.90
12089;DHT22;6107;49.078;8.578;2024-03-17T00:10:06;5.80;99.90
12089;DHT22;6107;49.078;8.578;2024-03-17T00:12:36;5.80;99.90
12089;DHT22;6107;49.078;8.578;2024-03-17T00:15:01;6.00;99.90
12089;DHT22;6107;49.078;8.578;2024-03-17T00:17:27;6.10;99.90
12089;DHT22;6107;49.078;8.578;2024-03-17T00:19:53;6.00;99.90
12089;DHT22;6107;49.078;8.578;2024-03-17T00:22:19;5.40;99.90
12089;DHT22;6107;49.078;8.578;2024-03-17T00:24:45;5.30;99.90
12089;DHT22;6107;49.078;8.578;2024-03-17T00:29:37;4.80;99.90
12089;DHT22;6107;49.078;8.578;2024-03-17T00:36:58;4.60;99.90
12089;DHT22;6107;49.078;8.578;2024-03-17T00:39:25;4.60;99.90
12089;DHT22;6107;49.078;8.578;2024-03-17T00:41:52;4.60;99.90
12089;DHT22;6107;49.078;8.578;2024-03-17T00:44:18;4.60;99.90
12089;DHT22;6107;49.078;8.578;2024-03-17T00:46:43;4.70;99.90
12089;DHT22;6107;49.078;8.578;2024-03-17T00:49:09;4.80;99.90
12089;DHT22;6107;49.078;8.578;2024-03-17T00:51:36;4.70;99.90
12089;DHT22;6107;49.078;8.578;2024-03-17T00:54:01;4.60;99.90
12089;DHT22;6107;49.078;8.578;2024-03-17T00:56:27;4.70;99.90
12089;DHT22;6107;49.078;8.578;2024-03-17T00:58:53;4.90;99.90
12089;DHT22;6107;49.078;8.578;2024-03-17T01:01:19;5.10;99.90
12089;DHT22;6107;49.078;8.578;2024-03-17T01:03:47;5.30;99.90
12089;DHT22;6107;49.078;8.578;2024-03-17T01:06:13;5.20;99.90
12089;DHT22;6107;49.078;8.578;2024-03-17T01:08:39;5.20;99.90
12089;DHT22;6107;49.078;8.578;2024-03-17T01:11:05;5.50;99.90
12089;DHT22;6107;49.078;8.578;2024-03-17T01:13:34;5.60;99.90
12089;DHT22;6107;49.078;8.578;2024-03-17T01:16:00;5.70;99.90
12089;DHT22;6107;49.078;8.578;2024-03-17T01:18:26;5.70;99.90
12089;DHT22;6107;49.078;8.578;2024-03-17T01:20:52;5.30;99.90
12089;DHT22;6107;49.078;8.578;2024-03-17T01:23:17;4.90;99.90
12089;DHT22;6107;49.078;8.578;2024-03-17T01:25:43;4.80;99.90
12089;DHT22;6107;49.078;8.578;2024-03-17T01:28:09;4.50;99.90
12089;DHT22;6107;49.078;8.578;2024-03-17T01:30:34;4.30;99.90
12089;DHT22;6107;49.078;8.578;2024-03-17T01:33:01;4.20;99.90
12089;DHT22;6107;49.078;8.578;2024-03-17T01:35:27;4.20;99.90
12089;DHT22;6107;49.078;8.578;2024-03-17T01:37:53;4.30;99.90
12089;DHT22;6107;49.078;8.578;2024-03-17T01:40:19;4.50;99.90
12089;DHT22;6107;49.078;8.578;2024-03-17T01:42:45;4.40;99.90
12089;DHT22;6107;49.078;8.578;2024-03-17T01:45:33;4.40;99.90
12089;DHT22;6107;49.078;8.578;2024-03-17T01:48:01;4.50;99.90
12089;DHT22;6107;49.078;8.578;2024-03-17T01:50:32;4.40;99.90
12089;DHT22;6107;49.078;8.578;2024-03-17T01:53:00;4.50;99.90
12089;DHT22;6107;49.078;8.578;2024-03-17T01:55:27;4.60;99.90
12089;DHT22;6107;49.078;8.578;2024-03-17T01:57:54;4.40;99.90
12089;DHT22;6107;49.078;8.578;2024-03-17T02:00:20;4.30;99.90
12089;DHT22;6107;49.078;8.578;2024-03-17T02:02:46;4.30;99.90
12089;DHT22;6107;49.078;8.578;2024-03-17T02:05:12;4.30;99.90
12089;DHT22;6107;49.078;8.578;2024-03-17T02:07:38;4.20;99.90
12089;DHT22;6107;49.078;8.578;2024-03-17T02:10:04;4.00;99.90
12089;DHT22;6107;49.078;8.578;2024-03-17T02:12:31;4.10;99.90
12089;DHT22;6107;49.078;8.578;2024-03-17T02:14:58;4.30;99.90
12089;DHT22;6107;49.078;8.578;2024-03-17T02:17:24;4.50;99.90
12089;DHT22;6107;49.078;8.578;2024-03-17T02:19:51;4.50;99.90
12089;DHT22;6107;49.078;8.578;2024-03-17T02:22:17;4.70;99.90
12089;DHT22;6107;49.078;8.578;2024-03-17T02:24:44;4.60;99.90
12089;DHT22;6107;49.078;8.578;2024-03-17T02:27:10;4.30;99.90
12089;DHT22;6107;49.078;8.578;2024-03-17T02:29:35;4.10;99.90
12089;DHT22;6107;49.078;8.578;2024-03-17T02:32:11;4.20;99.90
12089;DHT22;6107;49.078;8.578;2024-03-17T02:34:37;4.30;99.90
12089;DHT22;6107;49.078;8.578;2024-03-17T02:37:04;4.50;99.90
12089;DHT22;6107;49.078;8.578;2024-03-17T02:39:34;4.80;99.90
12089;DHT22;6107;49.078;8.578;2024-03-17T02:42:10;4.60;99.90
12089;DHT22;6107;49.078;8.578;2024-03-17T02:44:37;4.40;99.90
12089;DHT22;6107;49.078;8.578;2024-03-17T02:47:04;4.40;99.90
12089;DHT22;6107;49.078;8.578;2024-03-17T02:49:30;4.60;99.90
12089;DHT22;6107;49.078;8.578;2024-03-17T02:52:02;4.80;99.90
12089;DHT22;6107;49.078;8.578;2024-03-17T02:54:28;4.90;99.90
12089;DHT22;6107;49.078;8.578;2024-03-17T02:56:54;4.80;99.90
12089;DHT22;6107;49.078;8.578;2024-03-17T02:59:19;4.90;99.90
12089;DHT22;6107;49.078;8.578;2024-03-17T03:01:45;5.10;99.90
12089;DHT22;6107;49.078;8.578;2024-03-17T03:04:11;5.10;99.90
12089;DHT22;6107;49.078;8.578;2024-03-17T03:06:37;5.10;99.90
12089;DHT22;6107;49.078;8.578;2024-03-17T03:09:03;4.80;99.90
12089;DHT22;6107;49.078;8.578;2024-03-17T03:11:30;4.70;99.90
12089;DHT22;6107;49.078;8.578;2024-03-17T03:13:56;4.50;99.90
12089;DHT22;6107;49.078;8.578;2024-03-17T03:16:22;4.40;99.90
12089;DHT22;6107;49.078;8.578;2024-03-17T03:18:47;4.60;99.90
12089;DHT22;6107;49.078;8.578;2024-03-17T03:21:13;4.80;99.90
12089;DHT22;6107;49.078;8.578;2024-03-17T03:23:39;4.90;99.90
12089;DHT22;6107;49.078;8.578;2024-03-17T03:26:05;4.80;99.90
12089;DHT22;6107;49.078;8.578;2024-03-17T03:28:32;4.40;99.90
12089;DHT22;6107;49.078;8.578;2024-03-17T03:30:59;4.00;99.90
12089;DHT22;6107;49.078;8.578;2024-03-17T03:33:25;3.90;99.90
12089;DHT22;6107;49.078;8.578;2024-03-17T03:35:50;4.10;99.90
12089;DHT22;6107;49.078;8.578;2024-03-17T03:38:17;4.40;99.90
12089;DHT22;6107;49.078;8.578;2024-03-17T03:40:43;4.60;99.90
12089;DHT22;6107;49.078;8.578;2024-03-17T03:43:10;4.20;99.90
12089;DHT22;6107;49.078;8.578;2024-03-17T03:45:36;3.90;99.90
12089;DHT22;6107;49.078;8.578;2024-03-17T03:48:03;4.00;99.90
12089;DHT22;6107;49.078;8.578;2024-03-17T03:50:29;4.30;99.90
12089;DHT22;6107;49.078;8.578;2024-03-17T03:52:55;4.50;99.90
12089;DHT22;6107;49.078;8.578;2024-03-17T03:55:21;4.60;99.90
12089;DHT22;6107;49.078;8.578;2024-03-17T03:57:47;4.10;99.90
12089;DHT22;6107;49.078;8.578;2024-03-17T04:00:21;4.00;99.90
12089;DHT22;6107;49.078;8.578;2024-03-17T04:02:48;4.10;99.90
12089;DHT22;6107;49.078;8.578;2024-03-17T04:05:14;4.20;99.90
12089;DHT22;6107;49.078;8.578;2024-03-17T04:07:39;4.30;99.90
12089;DHT22;6107;49.078;8.578;2024-03-17T04:10:06;4.00;99.90
12089;DHT22;6107;49.078;8.578;2024-03-17T04:12:32;3.80;99.90
12089;DHT22;6107;49.078;8.578;2024-03-17T04:14:58;3.80;99.90
12089;DHT22;6107;49.078;8.578;2024-03-17T04:17:24;3.90;99.90
12089;DHT22;6107;49.078;8.578;2024-03-17T04:19:51;3.80;99.90
12089;DHT22;6107;49.078;8.578;2024-03-17T04:22:18;3.70;99.90
12089;DHT22;6107;49.078;8.578;2024-03-17T04:24:44;3.80;99.90
12089;DHT22;6107;49.078;8.578;2024-03-17T04:27:10;3.60;99.90
12089;DHT22;6107;49.078;8.578;2024-03-17T04:29:36;3.60;99.90
12089;DHT22;6107;49.078;8.578;2024-03-17T04:32:02;3.60;99.90
12089;DHT22;6107;49.078;8.578;2024-03-17T04:34:30;3.20;99.90
12089;DHT22;6107;49.078;8.578;2024-03-17T04:36:56;3.20;99.90
12089;DHT22;6107;49.078;8.578;2024-03-17T04:39:22;3.00;99.90
12089;DHT22;6107;49.078;8.578;2024-03-17T04:41:48;3.20;99.90
12089;DHT22;6107;49.078;8.578;2024-03-17T04:44:15;3.50;99.90
12089;DHT22;6107;49.078;8.578;2024-03-17T04:46:41;3.80;99.90
12089;DHT22;6107;49.078;8.578;2024-03-17T04:49:07;4.00;99.90
12089;DHT22;6107;49.078;8.578;2024-03-17T04:51:33;4.10;99.90
12089;DHT22;6107;49.078;8.578;2024-03-17T04:53:59;4.20;99.90
12089;DHT22;6107;49.078;8.578;2024-03-17T04:56:25;4.20;99.90
12089;DHT22;6107;49.078;8.578;2024-03-17T04:58:51;4.20;99.90
12089;DHT22;6107;49.078;8.578;2024-03-17T05:01:16;4.30;99.90
12089;DHT22;6107;49.078;8.578;2024-03-17T05:03:42;4.10;99.90
12089;DHT22;6107;49.078;8.578;2024-03-17T05:06:08;4.00;99.90
12089;DHT22;6107;49.078;8.578;2024-03-17T05:08:34;4.00;99.90
12089;DHT22;6107;49.078;8.578;2024-03-17T05:11:04;4.10;99.90
12089;DHT22;6107;49.078;8.578;2024-03-17T05:13:33;3.90;99.90
12089;DHT22;6107;49.078;8.578;2024-03-17T05:16:02;3.80;99.90
12089;DHT22;6107;49.078;8.578;2024-03-17T05:18:31;3.90;99.90
12089;DHT22;6107;49.078;8.578;2024-03-17T05:21:02;4.10;99.90
12089;DHT22;6107;49.078;8.578;2024-03-17T05:23:32;4.20;99.90
12089;DHT22;6107;49.078;8.578;2024-03-17T05:25:59;4.10;99.90
12089;DHT22;6107;49.078;8.578;2024-03-17T05:28:25;3.80;99.90
12089;DHT22;6107;49.078;8.578;2024-03-17T05:30:51;3.80;99.90
12089;DHT22;6107;49.078;8.578;2024-03-17T05:33:21;4.00;99.90
12089;DHT22;6107;49.078;8.578;2024-03-17T05:35:50;3.80;99.90
12089;DHT22;6107;49.078;8.578;2024-03-17T05:38:19;3.90;99.90
12089;DHT22;6107;49.078;8.578;2024-03-17T05:40:52;3.90;99.90
12089;DHT22;6107;49.078;8.578;2024-03-17T05:43:18;3.90;99.90
12089;DHT22;6107;49.078;8.578;2024-03-17T05:45:44;4.00;99.90
12089;DHT22;6107;49.078;8.578;2024-03-17T05:48:10;4.20;99.90
12089;DHT22;6107;49.078;8.578;2024-03-17T05:50:35;4.00;99.90
12089;DHT22;6107;49.078;8.578;2024-03-17T05:53:01;3.70;99.90
12089;DHT22;6107;49.078;8.578;2024-03-17T05:55:26;3.60;99.90
12089;DHT22;6107;49.078;8.578;2024-03-17T05:57:52;3.60;99.90
12089;DHT22;6107;49.078;8.578;2024-03-17T06:00:18;3.50;99.90
12089;DHT22;6107;49.078;8.578;2024-03-17T06:02:44;3.50;99.90
12089;DHT22;6107;49.078;8.578;2024-03-17T06:05:09;3.90;99.90
12089;DHT22;6107;49.078;8.578;2024-03-17T06:07:37;4.00;99.90
12089;DHT22;6107;49.078;8.578;2024-03-17T06:10:03;3.80;99.90
12089;DHT22;6107;49.078;8.578;2024-03-17T06:12:29;3.80;99.90
12089;DHT22;6107;49.078;8.578;2024-03-17T06:14:56;3.80;99.90
12089;DHT22;6107;49.078;8.578;2024-03-17T06:17:21;3.70;99.90
12089;DHT22;6107;49.078;8.578;2024-03-17T06:19:47;3.70;99.90
12089;DHT22;6107;49.078;8.578;2024-03-17T06:22:12;3.80;99.90
12089;DHT22;6107;49.078;8.578;2024-03-17T06:24:39;3.90;99.90
12089;DHT22;6107;49.078;8.578;2024-03-17T06:27:04;4.00;99.90
12089;DHT22;6107;49.078;8.578;2024-03-17T06:29:32;4.20;99.90
12089;DHT22;6107;49.078;8.578;2024-03-17T06:31:58;4.40;99.90
12089;DHT22;6107;49.078;8.578;2024-03-17T06:34:25;4.70;99.90
12089;DHT22;6107;49.078;8.578;2024-03-17T06:36:51;4.80;99.90
12089;DHT22;6107;49.078;8.578;2024-03-17T06:39:17;4.70;99.90
12089;DHT22;6107;49.078;8.578;2024-03-17T06:41:45;4.60;99.90
12089;DHT22;6107;49.078;8.578;2024-03-17T06:44:10;4.70;99.90
12089;DHT22;6107;49.078;8.578;2024-03-17T06:46:36;4.80;99.90
12089;DHT22;6107;49.078;8.578;2024-03-17T06:49:02;5.00;99.90
12089;DHT22;6107;49.078;8.578;2024-03-17T06:51:27;5.30;99.90
12089;DHT22;6107;49.078;8.578;2024-03-17T06:53:53;5.50;99.90
12089;DHT22;6107;49.078;8.578;2024-03-17T06:56:18;5.70;99.90
12089;DHT22;6107;49.078;8.578;2024-03-17T06:58:44;5.90;99.90
12089;DHT22;6107;49.078;8.578;2024-03-17T07:01:09;6.00;99.90
12089;DHT22;6107;49.078;8.578;2024-03-17T07:03:35;6.10;99.90
12089;DHT22;6107;49.078;8.578;2024-03-17T07:06:02;6.20;99.90
12089;DHT22;6107;49.078;8.578;2024-03-17T07:08:29;6.30;99.90
12089;DHT22;6107;49.078;8.578;2024-03-17T07:10:59;6.40;99.90
12089;DHT22;6107;49.078;8.578;2024-03-17T07:13:26;6.40;99.90
12089;DHT22;6107;49.078;8.578;2024-03-17T07:15:53;6.50;99.90
12089;DHT22;6107;49.078;8.578;2024-03-17T07:18:19;6.50;99.90
12089;DHT22;6107;49.078;8.578;2024-03-17T07:20:44;6.70;99.90
12089;DHT22;6107;49.078;8.578;2024-03-17T07:23:15;6.80;99.90
12089;DHT22;6107;49.078;8.578;2024-03-17T07:25:41;6.80;99.90
12089;DHT22;6107;49.078;8.578;2024-03-17T07:30:35;7.10;99.90
12089;DHT22;6107;49.078;8.578;2024-03-17T07:33:00;8.00;99.90
12089;DHT22;6107;49.078;8.578;2024-03-17T07:35:26;7.90;99.90
12089;DHT22;6107;49.078;8.578;2024-03-17T07:37:52;8.30;99.90
12089;DHT22;6107;49.078;8.578;2024-03-17T07:40:17;8.60;99.90
12089;DHT22;6107;49.078;8.578;2024-03-17T07:42:44;8.70;99.90
12089;DHT22;6107;49.078;8.578;2024-03-17T07:45:10;8.50;99.90
12089;DHT22;6107;49.078;8.578;2024-03-17T07:47:36;8.50;99.90
12089;DHT22;6107;49.078;8.578;2024-03-17T07:50:03;8.70;99.90
12089;DHT22;6107;49.078;8.578;2024-03-17T07:52:31;8.70;99.90
12089;DHT22;6107;49.078;8.578;2024-03-17T07:54:57;8.80;99.90
12089;DHT22;6107;49.078;8.578;2024-03-17T07:57:22;9.00;99.90
12089;DHT22;6107;49.078;8.578;2024-03-17T07:59:51;9.00;99.90
12089;DHT22;6107;49.078;8.578;2024-03-17T08:02:17;8.80;99.90
12089;DHT22;6107;49.078;8.578;2024-03-17T08:04:43;8.90;99.90
12089;DHT22;6107;49.078;8.578;2024-03-17T08:07:10;8.90;99.90
12089;DHT22;6107;49.078;8.578;2024-03-17T08:09:36;9.30;99.90
12089;DHT22;6107;49.078;8.578;2024-03-17T08:12:01;9.30;99.90
12089;DHT22;6107;49.078;8.578;2024-03-17T08:14:30;9.10;99.90
12089;DHT22;6107;49.078;8.578;2024-03-17T08:16:56;8.50;99.90
12089;DHT22;6107;49.078;8.578;2024-03-17T08:19:21;8.50;99.90
12089;DHT22;6107;49.078;8.578;2024-03-17T08:21:47;8.60;99.90
12089;DHT22;6107;49.078;8.578;2024-03-17T08:24:13;8.60;99.90
12089;DHT22;6107;49.078;8.578;2024-03-17T08:26:39;8.60;99.90
12089;DHT22;6107;49.078;8.578;2024-03-17T08:29:06;8.70;99.90
12089;DHT22;6107;49.078;8.578;2024-03-17T08:31:32;8.80;99.90
12089;DHT22;6107;49.078;8.578;2024-03-17T08:33:58;8.80;99.90
12089;DHT22;6107;49.078;8.578;2024-03-17T08:36:23;9.00;99.90
12089;DHT22;6107;49.078;8.578;2024-03-17T08:38:50;9.20;99.90
12089;DHT22;6107;49.078;8.578;2024-03-17T08:41:16;9.30;99.90
12089;DHT22;6107;49.078;8.578;2024-03-17T08:43:42;9.40;99.90
12089;DHT22;6107;49.078;8.578;2024-03-17T08:46:09;9.40;99.90
12089;DHT22;6107;49.078;8.578;2024-03-17T08:48:37;9.70;99.90
12089;DHT22;6107;49.078;8.578;2024-03-17T08:51:04;9.90;99.90
12089;DHT22;6107;49.078;8.578;2024-03-17T08:53:31;10.00;99.90
12089;DHT22;6107;49.078;8.578;2024-03-17T08:55:57;10.10;99.90
12089;DHT22;6107;49.078;8.578;2024-03-17T08:58:24;10.10;99.90
12089;DHT22;6107;49.078;8.578;2024-03-17T09:00:50;10.10;99.90
12089;DHT22;6107;49.078;8.578;2024-03-17T09:03:16;10.20;99.90
12089;DHT22;6107;49.078;8.578;2024-03-17T09:05:44;10.20;99.90
12089;DHT22;6107;49.078;8.578;2024-03-17T09:08:21;10.40;99.90
12089;DHT22;6107;49.078;8.578;2024-03-17T09:10:48;10.30;99.90
12089;DHT22;6107;49.078;8.578;2024-03-17T09:13:16;12.50;99.90
12089;DHT22;6107;49.078;8.578;2024-03-17T09:23:36;12.60;99.90
12089;DHT22;6107;49.078;8.578;2024-03-17T09:26:06;10.80;99.90
12089;DHT22;6107;49.078;8.578;2024-03-17T09:28:36;10.90;99.90
12089;DHT22;6107;49.078;8.578;2024-03-17T09:31:02;11.00;99.90
12089;DHT22;6107;49.078;8.578;2024-03-17T09:33:29;11.00;99.90
12089;DHT22;6107;49.078;8.578;2024-03-17T09:36:05;11.30;99.90
12089;DHT22;6107;49.078;8.578;2024-03-17T09:38:32;11.60;99.90
12089;DHT22;6107;49.078;8.578;2024-03-17T09:40:59;11.90;99.90
12089;DHT22;6107;49.078;8.578;2024-03-17T09:43:37;12.30;99.90
12089;DHT22;6107;49.078;8.578;2024-03-17T09:46:03;12.00;99.90
12089;DHT22;6107;49.078;8.578;2024-03-17T09:48:29;12.40;99.90
12089;DHT22;6107;49.078;8.578;2024-03-17T09:50:57;12.60;99.90
12089;DHT22;6107;49.078;8.578;2024-03-17T09:55:49;12.30;99.90
12089;DHT22;6107;49.078;8.578;2024-03-17T09:58:16;12.30;99.90
12089;DHT22;6107;49.078;8.578;2024-03-17T10:00:45;12.10;99.90
12089;DHT22;6107;49.078;8.578;2024-03-17T10:03:12;12.10;99.90
12089;DHT22;6107;49.078;8.578;2024-03-17T10:05:38;12.10;99.90
12089;DHT22;6107;49.078;8.578;2024-03-17T10:08:04;12.10;99.90
12089;DHT22;6107;49.078;8.578;2024-03-17T10:10:30;12.20;99.90
12089;DHT22;6107;49.078;8.578;2024-03-17T10:12:55;12.30;99.90
12089;DHT22;6107;49.078;8.578;2024-03-17T10:15:21;12.70;99.90
12089;DHT22;6107;49.078;8.578;2024-03-17T10:17:49;12.70;99.90
12089;DHT22;6107;49.078;8.578;2024-03-17T10:25:08;13.50;99.90
12089;DHT22;6107;49.078;8.578;2024-03-17T10:32:27;13.60;99.90
12089;DHT22;6107;49.078;8.578;2024-03-17T10:34:53;14.90;99.90
12089;DHT22;6107;49.078;8.578;2024-03-17T10:37:20;14.30;99.90
12089;DHT22;6107;49.078;8.578;2024-03-17T10:39:53;14.60;99.90
12089;DHT22;6107;49.078;8.578;2024-03-17T10:45:01;15.40;99.90
12089;DHT22;6107;49.078;8.578;2024-03-17T10:47:33;15.50;99.90
12089;DHT22;6107;49.078;8.578;2024-03-17T10:50:00;15.20;99.90
12089;DHT22;6107;49.078;8.578;2024-03-17T11:00:01;15.70;99.90
12089;DHT22;6107;49.078;8.578;2024-03-17T11:02:31;15.60;99.90
12089;DHT22;6107;49.078;8.578;2024-03-17T11:05:05;15.40;99.90
12089;DHT22;6107;49.078;8.578;2024-03-17T11:07:35;16.20;99.90
12089;DHT22;6107;49.078;8.578;2024-03-17T11:10:03;16.30;99.90
12089;DHT22;6107;49.078;8.578;2024-03-17T11:17:49;16.20;99.90
12089;DHT22;6107;49.078;8.578;2024-03-17T11:20:21;15.80;99.90
12089;DHT22;6107;49.078;8.578;2024-03-17T11:22:50;16.40;99.90
12089;DHT22;6107;49.078;8.578;2024-03-17T11:39:10;16.30;99.90
12089;DHT22;6107;49.078;8.578;2024-03-17T11:47:01;17.00;99.90
12089;DHT22;6107;49.078;8.578;2024-03-17T11:49:40;17.00;99.90
12089;DHT22;6107;49.078;8.578;2024-03-17T11:52:15;16.80;99.90
12089;DHT22;6107;49.078;8.578;2024-03-17T11:54:43;16.60;99.90
12089;DHT22;6107;49.078;8.578;2024-03-17T11:57:10;16.70;99.90
12089;DHT22;6107;49.078;8.578;2024-03-17T11:59:37;16.30;99.90
12089;DHT22;6107;49.078;8.578;2024-03-17T12:02:19;16.50;99.90
12089;DHT22;6107;49.078;8.578;2024-03-17T12:07:16;16.10;99.90
12089;DHT22;6107;49.078;8.578;2024-03-17T12:09:43;15.70;99.90
12089;DHT22;6107;49.078;8.578;2024-03-17T12:12:18;15.80;99.90
12089;DHT22;6107;49.078;8.578;2024-03-17T12:14:44;15.90;99.90
12089;DHT22;6107;49.078;8.578;2024-03-17T12:17:12;15.80;99.90
12089;DHT22;6107;49.078;8.578;2024-03-17T12:19:39;15.70;99.90
12089;DHT22;6107;49.078;8.578;2024-03-17T12:22:06;15.60;99.90
12089;DHT22;6107;49.078;8.578;2024-03-17T12:24:34;15.50;99.90
12089;DHT22;6107;49.078;8.578;2024-03-17T12:27:00;15.70;99.90
12089;DHT22;6107;49.078;8.578;2024-03-17T12:29:36;16.00;99.90
12089;DHT22;6107;49.078;8.578;2024-03-17T12:32:25;15.80;99.90
12089;DHT22;6107;49.078;8.578;2024-03-17T12:34:52;15.60;99.90
12089;DHT22;6107;49.078;8.578;2024-03-17T12:37:23;15.90;99.90
12089;DHT22;6107;49.078;8.578;2024-03-17T12:39:50;15.70;99.90
12089;DHT22;6107;49.078;8.578;2024-03-17T12:47:19;15.90;99.90
12089;DHT22;6107;49.078;8.578;2024-03-17T12:49:52;15.60;99.90
12089;DHT22;6107;49.078;8.578;2024-03-17T12:52:29;15.60;99.90
12089;DHT22;6107;49.078;8.578;2024-03-17T12:55:08;15.80;99.90
12089;DHT22;6107;49.078;8.578;2024-03-17T13:01:05;15.20;99.90
12089;DHT22;6107;49.078;8.578;2024-03-17T13:03:36;15.60;99.90
12089;DHT22;6107;49.078;8.578;2024-03-17T13:06:05;15.30;99.90
12089;DHT22;6107;49.078;8.578;2024-03-17T13:08:33;16.30;99.90
12089;DHT22;6107;49.078;8.578;2024-03-17T13:10:59;17.40;99.90
12089;DHT22;6107;49.078;8.578;2024-03-17T13:13:25;17.00;99.90
12089;DHT22;6107;49.078;8.578;2024-03-17T13:15:50;16.60;99.90
12089;DHT22;6107;49.078;8.578;2024-03-17T13:18:18;16.20;99.90
12089;DHT22;6107;49.078;8.578;2024-03-17T13:20:47;16.60;99.90
12089;DHT22;6107;49.078;8.578;2024-03-17T13:23:15;16.90;99.90
12089;DHT22;6107;49.078;8.578;2024-03-17T13:25:41;17.10;99.90
12089;DHT22;6107;49.078;8.578;2024-03-17T13:28:09;17.10;99.90
12089;DHT22;6107;49.078;8.578;2024-03-17T13:30:35;16.60;99.90
12089;DHT22;6107;49.078;8.578;2024-03-17T13:33:05;16.50;99.90
12089;DHT22;6107;49.078;8.578;2024-03-17T13:35:35;16.70;99.90
12089;DHT22;6107;49.078;8.578;2024-03-17T13:38:05;16.60;99.90
12089;DHT22;6107;49.078;8.578;2024-03-17T13:40:32;16.80;99.90
12089;DHT22;6107;49.078;8.578;2024-03-17T13:42:58;16.90;99.90
12089;DHT22;6107;49.078;8.578;2024-03-17T13:45:26;16.80;99.90
12089;DHT22;6107;49.078;8.578;2024-03-17T13:47:59;16.10;99.90
12089;DHT22;6107;49.078;8.578;2024-03-17T13:50:25;16.10;99.90
12089;DHT22;6107;49.078;8.578;2024-03-17T13:52:51;16.10;99.90
12089;DHT22;6107;49.078;8.578;2024-03-17T13:55:24;15.60;99.90
12089;DHT22;6107;49.078;8.578;2024-03-17T13:57:55;16.20;99.90
12089;DHT22;6107;49.078;8.578;2024-03-17T14:00:25;16.50;99.90
12089;DHT22;6107;49.078;8.578;2024-03-17T14:02:52;16.50;99.90
12089;DHT22;6107;49.078;8.578;2024-03-17T14:05:20;16.80;99.90
12089;DHT22;6107;49.078;8.578;2024-03-17T14:07:46;16.70;99.90
12089;DHT22;6107;49.078;8.578;2024-03-17T14:10:14;17.20;99.90
12089;DHT22;6107;49.078;8.578;2024-03-17T14:12:40;17.20;99.90
12089;DHT22;6107;49.078;8.578;2024-03-17T14:15:08;17.20;99.90
12089;DHT22;6107;49.078;8.578;2024-03-17T14:17:37;17.50;99.90
12089;DHT22;6107;49.078;8.578;2024-03-17T14:20:03;17.70;99.90
12089;DHT22;6107;49.078;8.578;2024-03-17T14:22:29;17.00;99.90
12089;DHT22;6107;49.078;8.578;2024-03-17T14:24:55;17.10;99.90
12089;DHT22;6107;49.078;8.578;2024-03-17T14:27:20;17.10;99.90
12089;DHT22;6107;49.078;8.578;2024-03-17T14:29:46;16.90;99.90
12089;DHT22;6107;49.078;8.578;2024-03-17T14:32:12;16.30;99.90
12089;DHT22;6107;49.078;8.578;2024-03-17T14:34:39;16.80;99.90
12089;DHT22;6107;49.078;8.578;2024-03-17T14:37:05;17.20;99.90
12089;DHT22;6107;49.078;8.578;2024-03-17T14:39:30;17.10;99.90
12089;DHT22;6107;49.078;8.578;2024-03-17T14:41:56;16.70;99.90
12089;DHT22;6107;49.078;8.578;2024-03-17T14:44:22;16.70;99.90
12089;DHT22;6107;49.078;8.578;2024-03-17T14:46:49;16.30;99.90
12089;DHT22;6107;49.078;8.578;2024-03-17T14:49:18;16.80;99.90
12089;DHT22;6107;49.078;8.578;2024-03-17T14:51:44;16.80;99.90
12089;DHT22;6107;49.078;8.578;2024-03-17T14:54:09;17.20;99.90
12089;DHT22;6107;49.078;8.578;2024-03-17T14:56:36;17.00;99.90
12089;DHT22;6107;49.078;8.578;2024-03-17T14:59:01;16.90;99.90
12089;DHT22;6107;49.078;8.578;2024-03-17T15:01:27;16.70;99.90
12089;DHT22;6107;49.078;8.578;2024-03-17T15:03:55;16.60;99.90
12089;DHT22;6107;49.078;8.578;2024-03-17T15:06:21;16.60;99.90
12089;DHT22;6107;49.078;8.578;2024-03-17T15:08:46;17.00;99.90
12089;DHT22;6107;49.078;8.578;2024-03-17T15:11:12;17.90;99.90
12089;DHT22;6107;49.078;8.578;2024-03-17T15:13:38;18.40;99.90
12089;DHT22;6107;49.078;8.578;2024-03-17T15:16:05;17.80;99.90
12089;DHT22;6107;49.078;8.578;2024-03-17T15:18:34;18.00;99.90
12089;DHT22;6107;49.078;8.578;2024-03-17T15:21:00;18.30;99.90
12089;DHT22;6107;49.078;8.578;2024-03-17T15:28:39;17.70;99.90
12089;DHT22;6107;49.078;8.578;2024-03-17T15:31:08;17.30;99.90
12089;DHT22;6107;49.078;8.578;2024-03-17T15:33:35;17.10;99.90
12089;DHT22;6107;49.078;8.578;2024-03-17T15:36:05;16.90;99.90
12089;DHT22;6107;49.078;8.578;2024-03-17T15:38:32;16.80;99.90
12089;DHT22;6107;49.078;8.578;2024-03-17T15:40:59;16.60;99.90
12089;DHT22;6107;49.078;8.578;2024-03-17T15:43:25;16.00;99.90
12089;DHT22;6107;49.078;8.578;2024-03-17T15:45:52;15.90;99.90
12089;DHT22;6107;49.078;8.578;2024-03-17T15:48:18;15.80;99.90
12089;DHT22;6107;49.078;8.578;2024-03-17T15:50:44;15.50;99.90
12089;DHT22;6107;49.078;8.578;2024-03-17T15:53:10;15.30;99.90
12089;DHT22;6107;49.078;8.578;2024-03-17T15:55:36;15.50;99.90
12089;DHT22;6107;49.078;8.578;2024-03-17T15:58:03;15.30;99.90
12089;DHT22;6107;49.078;8.578;2024-03-17T16:00:28;15.10;99.90
12089;DHT22;6107;49.078;8.578;2024-03-17T16:02:54;15.20;99.90
12089;DHT22;6107;49.078;8.578;2024-03-17T16:05:22;15.20;99.90
12089;DHT22;6107;49.078;8.578;2024-03-17T16:07:47;15.40;99.90
12089;DHT22;6107;49.078;8.578;2024-03-17T16:10:19;15.10;99.90
12089;DHT22;6107;49.078;8.578;2024-03-17T16:12:47;15.00;99.90
12089;DHT22;6107;49.078;8.578;2024-03-17T16:15:12;15.10;99.90
12089;DHT22;6107;49.078;8.578;2024-03-17T16:17:38;15.00;99.90
12089;DHT22;6107;49.078;8.578;2024-03-17T16:20:06;15.00;99.90
12089;DHT22;6107;49.078;8.578;2024-03-17T16:22:36;15.00;99.90
12089;DHT22;6107;49.078;8.578;2024-03-17T16:27:31;14.80;99.90
12089;DHT22;6107;49.078;8.578;2024-03-17T16:29:57;14.40;99.90
12089;DHT22;6107;49.078;8.578;2024-03-17T16:32:23;14.80;99.90
12089;DHT22;6107;49.078;8.578;2024-03-17T16:34:49;14.90;99.90
12089;DHT22;6107;49.078;8.578;2024-03-17T16:37:14;14.90;99.90
12089;DHT22;6107;49.078;8.578;2024-03-17T16:39:40;15.00;99.90
12089;DHT22;6107;49.078;8.578;2024-03-17T16:42:06;15.00;99.90
12089;DHT22;6107;49.078;8.578;2024-03-17T16:47:31;14.80;99.90
12089;DHT22;6107;49.078;8.578;2024-03-17T16:49:59;14.60;99.90
12089;DHT22;6107;49.078;8.578;2024-03-17T16:52:31;14.50;99.90
12089;DHT22;6107;49.078;8.578;2024-03-17T16:54:57;14.60;99.90
12089;DHT22;6107;49.078;8.578;2024-03-17T16:57:22;14.30;99.90
12089;DHT22;6107;49.078;8.578;2024-03-17T16:59:48;14.10;99.90
12089;DHT22;6107;49.078;8.578;2024-03-17T17:02:16;14.20;99.90
12089;DHT22;6107;49.078;8.578;2024-03-17T17:04:45;14.30;99.90
12089;DHT22;6107;49.078;8.578;2024-03-17T17:07:12;13.90;99.90
12089;DHT22;6107;49.078;8.578;2024-03-17T17:09:38;13.70;99.90
12089;DHT22;6107;49.078;8.578;2024-03-17T17:12:07;13.60;99.90
12089;DHT22;6107;49.078;8.578;2024-03-17T17:14:34;13.40;99.90
12089;DHT22;6107;49.078;8.578;2024-03-17T17:17:08;13.30;99.90
12089;DHT22;6107;49.078;8.578;2024-03-17T17:19:34;13.20;99.90
12089;DHT22;6107;49.078;8.578;2024-03-17T17:22:03;13.20;99.90